Time;durP1;ratioP1;P1;durP2;ratioP2;P2;SDS_P1;SDS_P2;PMS_P1;PMS_P2;Temp;Humidity;BMP_temperature;BMP_pressure;BME280_temperature;BME280_humidity;BME280_pressure;Samples;Min_cycle;Max_cycle;Signal;HPM_P1;HPM_P2
2022/09/26 00:01:15;;;;;;;8.57;5.55;;;;;;;;;;5093660;28;20587;-78
2022/09/26 00:03:45;;;;;;;8.52;5.80;;;;;;;;;;5091103;28;20043;-76
2022/09/26 00:06:11;;;;;;;8.90;5.80;;;;;;;;;;5089241;28;20032;-77
2022/09/26 00:08:38;;;;;;;8.95;5.50;;;;;;;;;;5090390;28;20027;-78
2022/09/26 00:11:05;;;;;;;8.27;5.20;;;;;;;;;;5089432;28;20040;-77
2022/09/26 00:13:32;;;;;;;9.18;5.40;;;;;;;;;;5083608;28;20024;-78
2022/09/26 00:15:58;;;;;;;8.93;5.03;;;;;;;;;;5090358;28;20036;-77
2022/09/26 00:18:24;;;;;;;7.70;5.57;;;;;;;;;;5089717;28;20024;-76
2022/09/26 00:20:51;;;;;;;7.28;5.22;;;;;;;;;;5092133;28;20039;-76
2022/09/26 00:23:17;;;;;;;9.05;5.38;;;;;;;;;;5091585;28;20024;-77
2022/09/26 00:25:46;;;;;;;9.00;5.93;;;;;;;;;;5089533;28;20027;-78
2022/09/26 00:28:13;;;;;;;9.85;5.30;;;;;;;;;;5087296;28;20050;-78
2022/09/26 00:30:39;;;;;;;9.60;5.32;;;;;;;;;;5090444;28;20055;-75
2022/09/26 00:33:05;;;;;;;7.43;4.88;;;;;;;;;;5091659;28;20455;-78
2022/09/26 00:35:32;;;;;;;7.43;5.00;;;;;;;;;;5090732;28;20070;-77
2022/09/26 00:37:58;;;;;;;6.68;4.88;;;;;;;;;;5091488;28;20032;-78
2022/09/26 00:40:25;;;;;;;30.25;6.47;;;;;;;;;;5091944;28;20048;-78
2022/09/26 00:42:52;;;;;;;15.38;5.60;;;;;;;;;;5072924;28;20070;-77
2022/09/26 00:45:18;;;;;;;9.13;5.38;;;;;;;;;;5091546;28;20039;-77
2022/09/26 00:47:47;;;;;;;7.65;5.43;;;;;;;;;;5092060;28;20126;-78
2022/09/26 00:50:21;;;;;;;8.40;5.25;;;;;;;;;;5078115;28;20039;-77
2022/09/26 00:52:52;;;;;;;8.18;5.53;;;;;;;;;;5091835;28;20031;-78
2022/09/26 00:55:20;;;;;;;7.85;5.22;;;;;;;;;;5091831;28;20028;-77
2022/09/26 00:57:52;;;;;;;13.18;5.60;;;;;;;;;;5092800;28;20028;-78
2022/09/26 01:00:18;;;;;;;6.35;4.65;;;;;;;;;;5086827;28;20029;-78
2022/09/26 01:02:46;;;;;;;8.80;5.25;;;;;;;;;;5093897;28;20040;-78
2022/09/26 01:05:15;;;;;;;7.80;5.18;;;;;;;;;;5092294;28;20028;-78
2022/09/26 01:07:41;;;;;;;12.30;5.10;;;;;;;;;;5093145;28;20427;-77
2022/09/26 01:10:08;;;;;;;10.13;5.47;;;;;;;;;;5094403;28;20435;-77
2022/09/26 01:12:36;;;;;;;8.73;4.70;;;;;;;;;;5085036;28;20362;-77
2022/09/26 01:15:04;;;;;;;8.52;5.50;;;;;;;;;;5090991;28;20085;-77
2022/09/26 01:17:30;;;;;;;8.45;4.93;;;;;;;;;;5089354;28;20032;-74
2022/09/26 01:20:11;;;;;;;7.55;5.57;;;;;;;;;;5091310;28;20024;-77
2022/09/26 01:22:44;;;;;;;8.23;5.60;;;;;;;;;;5090734;28;20035;-78
2022/09/26 01:25:28;;;;;;;8.02;5.53;;;;;;;;;;5091129;28;20114;-73
2022/09/26 01:27:57;;;;;;;7.40;4.70;;;;;;;;;;5090801;28;20028;-78
2022/09/26 01:30:27;;;;;;;8.23;5.07;;;;;;;;;;5091276;28;20024;-78
2022/09/26 01:32:59;;;;;;;7.35;4.80;;;;;;;;;;5089128;28;20028;-77
2022/09/26 01:35:34;;;;;;;6.47;4.60;;;;;;;;;;5088641;28;20142;-77
2022/09/26 01:38:08;;;;;;;6.60;5.13;;;;;;;;;;5090981;28;20493;-78
2022/09/26 01:40:52;;;;;;;6.50;4.13;;;;;;;;;;5088523;28;20032;-73
2022/09/26 01:43:24;;;;;;;8.75;4.68;;;;;;;;;;5090588;28;20036;-78
2022/09/26 01:45:58;;;;;;;6.57;4.22;;;;;;;;;;5092424;28;20101;-77
2022/09/26 01:48:26;;;;;;;7.10;4.65;;;;;;;;;;5090878;28;20416;-75
2022/09/26 01:51:00;;;;;;;6.95;4.72;;;;;;;;;;5094268;28;20058;-77
2022/09/26 01:53:29;;;;;;;6.75;5.18;;;;;;;;;;5091550;28;20073;-77
2022/09/26 01:55:57;;;;;;;7.75;4.40;;;;;;;;;;5095129;28;20491;-78
2022/09/26 01:58:44;;;;;;;8.00;4.78;;;;;;;;;;5077455;28;20384;-77
2022/09/26 02:01:11;;;;;;;7.45;4.40;;;;;;;;;;5012137;28;20045;-77
2022/09/26 02:03:39;;;;;;;5.22;4.10;;;;;;;;;;5013628;28;20049;-78
2022/09/26 02:06:09;;;;;;;8.02;4.30;;;;;;;;;;5012064;28;20057;-77
2022/09/26 02:08:45;;;;;;;7.63;4.70;;;;;;;;;;5011497;28;20072;-73
2022/09/26 02:11:11;;;;;;;9.38;5.13;;;;;;;;;;5013984;28;20033;-77
2022/09/26 02:13:51;;;;;;;6.80;4.28;;;;;;;;;;5012724;28;20157;-78
2022/09/26 02:16:26;;;;;;;5.57;4.45;;;;;;;;;;5013203;28;20045;-77
2022/09/26 02:19:04;;;;;;;8.20;4.25;;;;;;;;;;5013110;28;20479;-75
2022/09/26 02:21:30;;;;;;;6.43;4.30;;;;;;;;;;5021050;28;20037;-78
2022/09/26 02:23:59;;;;;;;6.68;4.30;;;;;;;;;;5312129;22;20025;-75
2022/09/26 02:26:25;;;;;;;5.80;4.50;;;;;;;;;;5030507;28;20061;-76
2022/09/26 02:28:51;;;;;;;7.13;4.35;;;;;;;;;;5015609;28;20025;-74
2022/09/26 02:31:21;;;;;;;8.85;5.07;;;;;;;;;;5016165;28;20033;-76
2022/09/26 02:33:51;;;;;;;6.18;4.60;;;;;;;;;;5026675;28;20023;-77
2022/09/26 02:36:17;;;;;;;8.30;4.20;;;;;;;;;;5018248;28;20474;-77
2022/09/26 02:38:43;;;;;;;7.70;4.05;;;;;;;;;;5013355;28;20383;-77
2022/09/26 02:41:17;;;;;;;6.20;3.97;;;;;;;;;;5030971;28;20025;-75
2022/09/26 02:43:49;;;;;;;6.82;3.90;;;;;;;;;;5014777;28;20044;-76
2022/09/26 02:46:25;;;;;;;4.82;3.70;;;;;;;;;;5032160;28;20134;-76
2022/09/26 02:48:57;;;;;;;6.05;3.58;;;;;;;;;;5032981;28;20095;-73
2022/09/26 02:51:23;;;;;;;5.95;3.92;;;;;;;;;;5030975;28;20494;-73
2022/09/26 02:54:08;;;;;;;6.18;3.95;;;;;;;;;;5033496;28;20037;-72
2022/09/26 02:56:54;;;;;;;4.97;3.90;;;;;;;;;;5016123;28;20503;-76
2022/09/26 02:59:29;;;;;;;7.20;4.00;;;;;;;;;;5030759;28;20759;-76
2022/09/26 03:02:08;;;;;;;5.53;4.30;;;;;;;;;;5043463;28;20091;-74
2022/09/26 03:04:53;;;;;;;5.35;3.70;;;;;;;;;;5015347;28;20024;-72
2022/09/26 03:07:39;;;;;;;5.05;4.18;;;;;;;;;;5027202;28;20773;-73
2022/09/26 03:10:07;;;;;;;4.63;3.83;;;;;;;;;;5012490;28;20043;-76
2022/09/26 03:12:34;;;;;;;6.63;3.78;;;;;;;;;;5032713;28;20374;-73
2022/09/26 03:15:02;;;;;;;6.20;3.90;;;;;;;;;;5014040;28;20028;-72
2022/09/26 03:17:30;;;;;;;4.80;4.00;;;;;;;;;;5032382;28;20033;-72
2022/09/26 03:20:08;;;;;;;6.80;4.43;;;;;;;;;;5030574;28;20096;-73
2022/09/26 03:22:34;;;;;;;6.18;3.80;;;;;;;;;;5012427;28;20052;-75
2022/09/26 03:25:01;;;;;;;10.38;4.45;;;;;;;;;;5049512;28;20040;-76
2022/09/26 03:27:27;;;;;;;6.20;3.50;;;;;;;;;;5033263;28;20025;-75
2022/09/26 03:29:53;;;;;;;5.00;3.78;;;;;;;;;;5015907;28;20116;-76
2022/09/26 03:32:19;;;;;;;8.52;3.60;;;;;;;;;;5011911;28;20026;-75
2022/09/26 03:34:45;;;;;;;6.00;3.88;;;;;;;;;;5015411;28;20072;-77
2022/09/26 03:37:12;;;;;;;4.93;3.53;;;;;;;;;;5030882;28;20048;-72
2022/09/26 03:39:38;;;;;;;5.75;3.80;;;;;;;;;;5032604;28;20018;-76
2022/09/26 03:42:04;;;;;;;6.95;3.63;;;;;;;;;;5031408;28;20021;-75
2022/09/26 03:44:30;;;;;;;6.82;3.83;;;;;;;;;;5031564;28;20048;-75
2022/09/26 03:46:56;;;;;;;9.00;4.20;;;;;;;;;;5031505;28;20065;-75
2022/09/26 03:49:22;;;;;;;7.60;4.00;;;;;;;;;;5030503;28;20022;-75
2022/09/26 03:51:48;;;;;;;6.80;4.07;;;;;;;;;;5025270;28;20017;-76
2022/09/26 03:54:15;;;;;;;5.38;3.88;;;;;;;;;;5024251;28;20594;-75
2022/09/26 03:56:41;;;;;;;5.15;3.85;;;;;;;;;;5033538;28;20037;-76
2022/09/26 03:59:08;;;;;;;4.20;3.33;;;;;;;;;;5033704;28;20018;-76
2022/09/26 04:01:34;;;;;;;6.07;3.90;;;;;;;;;;5032469;28;20030;-76
2022/09/26 04:04:00;;;;;;;5.28;3.33;;;;;;;;;;5031369;28;20597;-76
2022/09/26 04:06:26;;;;;;;4.20;3.28;;;;;;;;;;5012820;28;20465;-76
2022/09/26 04:08:52;;;;;;;5.47;3.40;;;;;;;;;;5032791;28;20025;-74
2022/09/26 04:11:23;;;;;;;6.60;3.35;;;;;;;;;;5033529;28;20029;-76
2022/09/26 04:13:50;;;;;;;6.65;3.65;;;;;;;;;;5029869;28;20029;-77
2022/09/26 04:16:16;;;;;;;5.50;3.35;;;;;;;;;;5038045;28;20041;-75
2022/09/26 04:18:42;;;;;;;4.22;3.15;;;;;;;;;;5035026;28;20072;-77
2022/09/26 04:21:09;;;;;;;5.60;3.42;;;;;;;;;;5032287;28;20033;-78
2022/09/26 04:23:37;;;;;;;4.43;3.20;;;;;;;;;;5033628;28;20088;-72
2022/09/26 04:26:07;;;;;;;8.40;3.60;;;;;;;;;;5031001;28;20050;-72
2022/09/26 04:28:34;;;;;;;5.25;3.08;;;;;;;;;;5033906;28;20036;-74
2022/09/26 04:31:01;;;;;;;6.88;3.08;;;;;;;;;;5034908;28;20021;-76
2022/09/26 04:33:27;;;;;;;4.97;3.35;;;;;;;;;;5024550;28;20093;-74
2022/09/26 04:35:53;;;;;;;5.85;3.40;;;;;;;;;;5028651;28;20033;-74
2022/09/26 04:38:19;;;;;;;3.95;3.25;;;;;;;;;;5031534;28;20025;-74
2022/09/26 04:40:45;;;;;;;7.38;3.30;;;;;;;;;;5028220;28;20372;-75
2022/09/26 04:43:12;;;;;;;6.07;3.53;;;;;;;;;;5012785;28;22182;-69
2022/09/26 04:45:41;;;;;;;4.38;3.22;;;;;;;;;;5041228;28;20418;-74
2022/09/26 04:48:09;;;;;;;6.75;3.58;;;;;;;;;;5019027;28;20040;-76
2022/09/26 04:50:35;;;;;;;4.82;2.97;;;;;;;;;;5009675;28;20021;-73
2022/09/26 04:53:01;;;;;;;5.05;3.10;;;;;;;;;;5025043;28;20491;-75
2022/09/26 04:55:27;;;;;;;5.57;3.17;;;;;;;;;;5031351;28;20084;-76
2022/09/26 04:57:53;;;;;;;5.55;2.95;;;;;;;;;;5035873;28;20025;-77
2022/09/26 05:00:19;;;;;;;7.53;3.35;;;;;;;;;;5014881;28;20034;-76
2022/09/26 05:02:46;;;;;;;3.80;2.85;;;;;;;;;;5029215;28;20036;-73
2022/09/26 05:05:12;;;;;;;3.83;2.70;;;;;;;;;;5009504;28;20040;-73
2022/09/26 05:07:42;;;;;;;4.38;2.88;;;;;;;;;;5030123;28;20101;-72
2022/09/26 05:10:09;;;;;;;4.07;2.90;;;;;;;;;;5030106;28;20032;-73
2022/09/26 05:12:38;;;;;;;4.63;3.20;;;;;;;;;;5013928;28;20029;-77
2022/09/26 05:15:07;;;;;;;5.28;3.28;;;;;;;;;;5034319;28;20053;-70
2022/09/26 05:17:33;;;;;;;9.68;3.58;;;;;;;;;;5026718;28;20113;-74
2022/09/26 05:19:59;;;;;;;6.82;3.20;;;;;;;;;;5014729;28;20522;-73
2022/09/26 05:22:29;;;;;;;3.45;2.70;;;;;;;;;;5035958;28;20495;-74
2022/09/26 05:27:40;;;;;;;5.60;3.03;;;;;;;;;;5008474;28;20888;-71
2022/09/26 05:30:06;;;;;;;6.00;2.92;;;;;;;;;;5013686;28;20041;-71
2022/09/26 05:32:33;;;;;;;4.85;3.10;;;;;;;;;;5011760;28;20022;-75
2022/09/26 05:34:59;;;;;;;4.97;3.20;;;;;;;;;;5011805;28;20022;-74
2022/09/26 05:37:25;;;;;;;8.93;4.72;;;;;;;;;;4995906;28;20037;-73
2022/09/26 05:42:36;;;;;;;4.28;2.85;;;;;;;;;;5009942;28;20120;-74
2022/09/26 05:45:02;;;;;;;4.93;3.13;;;;;;;;;;4997381;28;20022;-75
2022/09/26 05:47:33;;;;;;;5.07;3.13;;;;;;;;;;5011052;28;20026;-73
2022/09/26 05:49:59;;;;;;;6.68;3.65;;;;;;;;;;4993204;28;20049;-74
2022/09/26 05:52:27;;;;;;;9.40;3.35;;;;;;;;;;4991410;28;20048;-73
2022/09/26 05:54:53;;;;;;;4.13;2.90;;;;;;;;;;4996897;28;20117;-75
2022/09/26 05:57:19;;;;;;;4.18;3.10;;;;;;;;;;5012707;28;20399;-74
2022/09/26 05:59:45;;;;;;;6.07;2.75;;;;;;;;;;5008837;28;20141;-73
2022/09/26 06:02:11;;;;;;;4.97;3.30;;;;;;;;;;4990717;28;20088;-73
2022/09/26 06:04:38;;;;;;;7.57;3.20;;;;;;;;;;5013732;28;20025;-74
2022/09/26 06:07:04;;;;;;;4.85;3.05;;;;;;;;;;5010913;28;20384;-73
2022/09/26 06:09:30;;;;;;;8.75;2.90;;;;;;;;;;5006593;28;20026;-75
2022/09/26 06:11:56;;;;;;;6.43;3.13;;;;;;;;;;4996348;28;20487;-73
2022/09/26 06:14:25;;;;;;;6.00;3.22;;;;;;;;;;5012718;28;20026;-78
2022/09/26 06:16:51;;;;;;;5.30;3.28;;;;;;;;;;5012438;28;20030;-73
2022/09/26 06:19:17;;;;;;;6.18;3.10;;;;;;;;;;5023711;28;20057;-76
2022/09/26 06:21:43;;;;;;;5.35;3.10;;;;;;;;;;5004896;28;20101;-78
2022/09/26 06:24:09;;;;;;;4.68;2.50;;;;;;;;;;5017370;28;20030;-78
2022/09/26 06:26:36;;;;;;;2.60;2.30;;;;;;;;;;5024022;28;20053;-77
2022/09/26 06:29:03;;;;;;;7.10;4.38;;;;;;;;;;5021371;28;20037;-77
2022/09/26 06:31:29;;;;;;;4.03;2.72;;;;;;;;;;5036802;28;20071;-74
2022/09/26 06:33:57;;;;;;;5.03;3.38;;;;;;;;;;5032031;28;20044;-76
2022/09/26 06:36:24;;;;;;;4.13;3.13;;;;;;;;;;5036375;28;20060;-80
2022/09/26 06:38:50;;;;;;;8.40;4.30;;;;;;;;;;5039140;28;20068;-76
2022/09/26 06:41:16;;;;;;;8.77;2.83;;;;;;;;;;5034393;28;20029;-77
2022/09/26 06:43:44;;;;;;;8.60;3.00;;;;;;;;;;5016945;28;20029;-76
2022/09/26 06:46:10;;;;;;;5.57;2.67;;;;;;;;;;5032227;28;20033;-77
2022/09/26 06:48:51;;;;;;;5.47;2.80;;;;;;;;;;5044088;28;20144;-79
2022/09/26 06:51:42;;;;;;;6.78;2.72;;;;;;;;;;5058364;28;20013;-82
2022/09/26 07:00:16;;;;;;;5.97;2.85;;;;;;;;;;5017040;28;20072;-77
2022/09/26 07:02:52;;;;;;;5.60;3.13;;;;;;;;;;5003408;28;20040;-80
2022/09/26 07:05:32;;;;;;;5.53;3.17;;;;;;;;;;5326391;23;20061;-77
2022/09/26 07:08:15;;;;;;;8.30;3.50;;;;;;;;;;5009549;28;20043;-81
2022/09/26 07:16:49;;;;;;;5.57;3.28;;;;;;;;;;4988638;28;20178;-78
2022/09/26 07:24:35;;;;;;;5.85;3.33;;;;;;;;;;5215545;23;20073;-79
2022/09/26 07:27:02;;;;;;;6.22;3.35;;;;;;;;;;4976916;28;20042;-77
2022/09/26 07:29:29;;;;;;;6.00;3.25;;;;;;;;;;4980378;28;20104;-80
2022/09/26 07:32:04;;;;;;;6.00;2.53;;;;;;;;;;4990134;28;20022;-80
2022/09/26 07:34:52;;;;;;;3.45;2.60;;;;;;;;;;4979483;28;20128;-80
2022/09/26 07:37:17;;;;;;;;;;;;;;;;;;5000555;28;20026;-79
2022/09/26 07:39:44;;;;;;;3.00;2.47;;;;;;;;;;4997556;28;20065;-78
2022/09/26 07:42:13;;;;;;;7.50;3.00;;;;;;;;;;4999757;28;20022;-76
2022/09/26 07:44:39;;;;;;;6.78;3.05;;;;;;;;;;4990996;28;20061;-75
2022/09/26 07:52:40;;;;;;;10.57;5.18;;;;;;;;;;5000534;28;20072;-78
2022/09/26 07:55:08;;;;;;;11.25;5.30;;;;;;;;;;4991916;28;20040;-79
2022/09/26 07:57:35;;;;;;;13.38;5.25;;;;;;;;;;4993577;28;20065;-80
2022/09/26 08:00:07;;;;;;;7.72;5.55;;;;;;;;;;4986335;28;20022;-80
2022/09/26 08:02:34;;;;;;;8.65;5.90;;;;;;;;;;5000943;28;20026;-79
2022/09/26 08:05:04;;;;;;;11.90;5.80;;;;;;;;;;4972483;28;20030;-78
2022/09/26 08:07:31;;;;;;;9.80;6.22;;;;;;;;;;4987597;28;20134;-79
2022/09/26 08:09:57;;;;;;;12.77;8.05;;;;;;;;;;4991417;28;20022;-79
2022/09/26 08:12:25;;;;;;;14.13;6.97;;;;;;;;;;4988554;28;20077;-77
2022/09/26 08:14:52;;;;;;;9.73;6.57;;;;;;;;;;4976744;28;20064;-76
2022/09/26 08:17:18;;;;;;;11.15;6.57;;;;;;;;;;4990579;28;20078;-77
2022/09/26 08:19:44;;;;;;;13.20;7.47;;;;;;;;;;4973146;28;20089;-76
2022/09/26 08:22:32;;;;;;;10.32;6.70;;;;;;;;;;4979514;28;20034;-80
2022/09/26 08:24:59;;;;;;;12.13;6.80;;;;;;;;;;4978114;28;20420;-76
2022/09/26 08:27:25;;;;;;;10.65;7.07;;;;;;;;;;4988052;28;20032;-76
2022/09/26 08:29:52;;;;;;;11.55;6.78;;;;;;;;;;4966923;28;20035;-77
2022/09/26 08:32:19;;;;;;;10.38;6.90;;;;;;;;;;4990669;28;20253;-75
2022/09/26 08:34:46;;;;;;;9.40;6.97;;;;;;;;;;4990489;28;20022;-75
2022/09/26 08:37:12;;;;;;;10.52;7.18;;;;;;;;;;4988573;28;20492;-76
2022/09/26 08:39:38;;;;;;;12.73;7.32;;;;;;;;;;4987922;28;20030;-76
2022/09/26 08:42:11;;;;;;;13.43;7.25;;;;;;;;;;4990000;28;20038;-80
2022/09/26 08:44:44;;;;;;;11.38;7.20;;;;;;;;;;5008245;28;20053;-78
2022/09/26 08:47:20;;;;;;;14.45;7.60;;;;;;;;;;5009667;28;20022;-76
2022/09/26 08:50:06;;;;;;;10.73;7.53;;;;;;;;;;5007722;28;20054;-80
2022/09/26 08:52:32;;;;;;;10.50;7.10;;;;;;;;;;5009840;28;20023;-79
2022/09/26 08:55:00;;;;;;;12.23;7.10;;;;;;;;;;4992956;28;20023;-79
2022/09/26 08:57:41;;;;;;;11.57;6.60;;;;;;;;;;5012574;28;20373;-80
2022/09/26 09:00:27;;;;;;;9.27;7.18;;;;;;;;;;4997287;28;20399;-80
2022/09/26 09:02:59;;;;;;;10.00;7.10;;;;;;;;;;5017171;28;20491;-81
2022/09/26 09:05:31;;;;;;;10.05;6.70;;;;;;;;;;5018731;28;20067;-81
2022/09/26 09:07:58;;;;;;;8.30;6.38;;;;;;;;;;5003161;28;20011;-79
2022/09/26 09:10:44;;;;;;;12.00;6.95;;;;;;;;;;5027975;28;20022;-81
2022/09/26 09:13:27;;;;;;;13.88;6.72;;;;;;;;;;5016053;28;20078;-80
2022/09/26 09:16:19;;;;;;;14.43;6.95;;;;;;;;;;5009419;28;20026;-78
2022/09/26 09:18:54;;;;;;;12.07;6.55;;;;;;;;;;5006800;28;20499;-81
2022/09/26 09:21:35;;;;;;;9.70;6.60;;;;;;;;;;5016897;28;20015;-79
2022/09/26 09:24:20;;;;;;;11.65;6.65;;;;;;;;;;5016269;28;20046;-80
2022/09/26 09:26:58;;;;;;;10.38;6.80;;;;;;;;;;5035947;28;20030;-81
2022/09/26 09:29:34;;;;;;;10.57;6.40;;;;;;;;;;5002326;28;20090;-81
2022/09/26 09:32:02;;;;;;;10.27;6.35;;;;;;;;;;5018210;28;20037;-80
2022/09/26 09:34:31;;;;;;;13.57;6.47;;;;;;;;;;5008362;28;20038;-79
2022/09/26 09:36:59;;;;;;;12.90;6.65;;;;;;;;;;5003205;28;20045;-75
2022/09/26 09:39:29;;;;;;;12.38;7.07;;;;;;;;;;5016406;28;20026;-78
2022/09/26 09:41:57;;;;;;;10.10;7.07;;;;;;;;;;5013443;28;20046;-76
2022/09/26 09:44:26;;;;;;;14.20;6.78;;;;;;;;;;4995857;28;20035;-76
2022/09/26 09:46:53;;;;;;;11.90;7.20;;;;;;;;;;4988211;28;20531;-79
2022/09/26 09:49:26;;;;;;;9.43;7.28;;;;;;;;;;4978482;28;20043;-81
2022/09/26 09:52:07;;;;;;;10.38;7.05;;;;;;;;;;4988179;28;20038;-80
2022/09/26 09:54:33;;;;;;;15.32;7.32;;;;;;;;;;4977772;28;20515;-77
2022/09/26 09:57:06;;;;;;;10.13;6.82;;;;;;;;;;4984254;28;20046;-76
2022/09/26 09:59:48;;;;;;;12.23;7.47;;;;;;;;;;4989679;28;20047;-81
2022/09/26 10:02:36;;;;;;;14.75;7.18;;;;;;;;;;4986439;28;20043;-79
2022/09/26 10:05:22;;;;;;;12.38;6.75;;;;;;;;;;4998097;28;20042;-79
2022/09/26 10:07:59;;;;;;;9.30;7.03;;;;;;;;;;4999892;28;20037;-80
2022/09/26 10:10:37;;;;;;;12.98;7.03;;;;;;;;;;5006805;28;20022;-79
2022/09/26 10:13:04;;;;;;;14.32;7.28;;;;;;;;;;5003425;28;20031;-79
2022/09/26 10:15:31;;;;;;;13.50;6.78;;;;;;;;;;4993401;28;20026;-79
2022/09/26 10:18:25;;;;;;;10.90;7.22;;;;;;;;;;5002525;28;20031;-80
2022/09/26 10:21:10;;;;;;;9.02;6.82;;;;;;;;;;5023407;28;20080;-77
2022/09/26 10:23:51;;;;;;;11.70;7.80;;;;;;;;;;5019720;28;20081;-76
2022/09/26 10:26:33;;;;;;;11.60;7.43;;;;;;;;;;5020768;28;20015;-82
2022/09/26 10:29:52;;;;;;;16.38;7.10;;;;;;;;;;5018081;28;20180;-75
2022/09/26 10:32:18;;;;;;;9.30;7.22;;;;;;;;;;5001608;28;20011;-83
2022/09/26 10:35:01;;;;;;;16.85;7.75;;;;;;;;;;5001605;28;20038;-80
2022/09/26 10:37:30;;;;;;;9.40;7.13;;;;;;;;;;5001638;28;20110;-79
2022/09/26 10:42:46;;;;;;;10.95;6.80;;;;;;;;;;5014835;28;20033;-79
2022/09/26 10:45:41;;;;;;;10.90;6.75;;;;;;;;;;5019735;28;20022;-80
2022/09/26 10:48:07;;;;;;;12.60;7.72;;;;;;;;;;5020043;28;20058;-80
2022/09/26 10:50:33;;;;;;;10.18;7.07;;;;;;;;;;5027150;28;20024;-74
2022/09/26 10:53:02;;;;;;;13.13;7.70;;;;;;;;;;5040354;28;20028;-77
2022/09/26 10:55:43;;;;;;;12.10;7.38;;;;;;;;;;5019225;28;20075;-77
2022/09/26 10:58:29;;;;;;;10.38;7.22;;;;;;;;;;5017970;28;20038;-79
2022/09/26 11:01:15;;;;;;;11.38;6.57;;;;;;;;;;5017972;28;20023;-74
2022/09/26 11:03:45;;;;;;;11.23;7.68;;;;;;;;;;5016499;28;20037;-74
2022/09/26 11:06:22;;;;;;;12.10;7.07;;;;;;;;;;5018851;28;20053;-73
2022/09/26 11:08:51;;;;;;;10.32;7.00;;;;;;;;;;5022991;28;20018;-77
2022/09/26 11:11:20;;;;;;;11.85;7.05;;;;;;;;;;5027822;28;20025;-74
2022/09/26 11:14:07;;;;;;;12.95;7.05;;;;;;;;;;5017779;28;20007;-73
2022/09/26 11:16:48;;;;;;;10.57;6.85;;;;;;;;;;5033001;28;20046;-74
2022/09/26 11:19:21;;;;;;;8.65;7.05;;;;;;;;;;5021007;28;20026;-73
2022/09/26 11:22:31;;;;;;;10.00;7.53;;;;;;;;;;5016661;28;20030;-74
2022/09/26 11:27:37;;;;;;;10.95;7.00;;;;;;;;;;5038269;23;20056;-73
2022/09/26 11:30:09;;;;;;;12.38;7.10;;;;;;;;;;5019310;28;20017;-77
2022/09/26 11:32:39;;;;;;;9.93;7.13;;;;;;;;;;5033965;28;20030;-74
2022/09/26 11:35:06;;;;;;;12.00;6.95;;;;;;;;;;5007393;28;20034;-79
2022/09/26 11:37:38;;;;;;;7.40;5.97;;;;;;;;;;5002071;28;20037;-78
2022/09/26 11:40:16;;;;;;;12.23;6.68;;;;;;;;;;5024619;28;20056;-79
2022/09/26 11:43:07;;;;;;;12.68;6.28;;;;;;;;;;5006576;28;20038;-77
2022/09/26 11:45:52;;;;;;;10.98;6.57;;;;;;;;;;5025601;28;20029;-70
2022/09/26 11:48:24;;;;;;;11.63;7.20;;;;;;;;;;5022038;28;20037;-81
2022/09/26 11:51:02;;;;;;;8.23;6.75;;;;;;;;;;5031214;28;20094;-82
2022/09/26 11:53:56;;;;;;;10.70;6.95;;;;;;;;;;5019417;28;20288;-76
2022/09/26 11:56:43;;;;;;;12.43;6.80;;;;;;;;;;5012096;28;20391;-78
2022/09/26 11:59:18;;;;;;;11.18;6.63;;;;;;;;;;5006493;28;20029;-75
2022/09/26 12:01:53;;;;;;;9.77;6.50;;;;;;;;;;5022034;28;20053;-77
2022/09/26 12:04:54;;;;;;;8.48;6.15;;;;;;;;;;5015319;28;20043;-77
2022/09/26 12:07:20;;;;;;;9.75;6.38;;;;;;;;;;5016548;28;20034;-77
2022/09/26 12:09:56;;;;;;;8.07;6.32;;;;;;;;;;5015063;28;20064;-78
2022/09/26 12:12:27;;;;;;;8.35;6.05;;;;;;;;;;5020324;28;20489;-77
2022/09/26 12:15:04;;;;;;;8.80;6.35;;;;;;;;;;5013117;28;20026;-77
2022/09/26 12:17:35;;;;;;;9.23;6.68;;;;;;;;;;5016309;28;20117;-79
2022/09/26 12:20:30;;;;;;;10.25;6.70;;;;;;;;;;5019802;28;20029;-77
2022/09/26 12:26:25;;;;;;;8.43;6.65;;;;;;;;;;4999929;28;20053;-77
2022/09/26 12:29:14;;;;;;;10.35;6.68;;;;;;;;;;4982749;28;20051;-76
2022/09/26 12:31:50;;;;;;;15.23;6.75;;;;;;;;;;5000799;28;20086;-79
2022/09/26 12:34:36;;;;;;;7.97;6.28;;;;;;;;;;4983318;28;20539;-79
2022/09/26 12:37:22;;;;;;;9.27;6.00;;;;;;;;;;5001554;28;20110;-77
2022/09/26 12:40:05;;;;;;;6.65;5.85;;;;;;;;;;4992722;28;20546;-81
2022/09/26 12:42:31;;;;;;;11.60;6.97;;;;;;;;;;4985236;28;20030;-79
2022/09/26 12:45:33;;;;;;;9.15;6.47;;;;;;;;;;5003995;28;20034;-80
2022/09/26 12:48:29;;;;;;;10.52;5.95;;;;;;;;;;4934294;29;20032;-80
2022/09/26 12:51:21;;;;;;;14.55;7.85;;;;;;;;;;4926950;29;20047;-77
2022/09/26 12:53:50;;;;;;;9.20;5.70;;;;;;;;;;4925121;29;20062;-75
2022/09/26 12:56:45;;;;;;;;;;;;;;;;;;;;;
2022/09/26 12:59:12;;;;;;;7.85;5.97;;;;;;;;;;4911801;29;20409;-74
2022/09/26 13:01:46;;;;;;;9.52;6.20;;;;;;;;;;4909875;29;20437;-73
2022/09/26 13:04:18;;;;;;;11.25;6.60;;;;;;;;;;4918833;29;20047;-79
2022/09/26 13:06:44;;;;;;;12.75;6.22;;;;;;;;;;4925262;29;20060;-77
2022/09/26 13:09:26;;;;;;;10.50;6.15;;;;;;;;;;4912474;29;20048;-80
2022/09/26 13:11:59;;;;;;;19.48;7.28;;;;;;;;;;4912049;29;20088;-79
2022/09/26 13:14:40;;;;;;;9.73;5.93;;;;;;;;;;4919710;29;20036;-78
2022/09/26 13:17:16;;;;;;;12.30;6.22;;;;;;;;;;4900648;29;20048;-78
2022/09/26 13:19:57;;;;;;;10.25;6.30;;;;;;;;;;4922202;29;20060;-78
2022/09/26 13:22:36;;;;;;;12.20;6.68;;;;;;;;;;4972824;28;20038;-80
2022/09/26 13:25:02;;;;;;;10.40;6.30;;;;;;;;;;4995678;28;20038;-79
2022/09/26 13:27:35;;;;;;;7.97;5.93;;;;;;;;;;4993531;28;20073;-80
2022/09/26 13:30:07;;;;;;;12.10;6.10;;;;;;;;;;5011350;28;20027;-80
2022/09/26 13:32:46;;;;;;;11.15;6.13;;;;;;;;;;4989445;28;20030;-80
2022/09/26 13:35:26;;;;;;;7.30;6.07;;;;;;;;;;4986234;28;20069;-80
2022/09/26 13:38:00;;;;;;;10.32;6.00;;;;;;;;;;4991978;28;20112;-76
2022/09/26 13:40:39;;;;;;;7.95;6.18;;;;;;;;;;4993491;28;20412;-77
2022/09/26 13:43:08;;;;;;;9.45;5.63;;;;;;;;;;5002589;28;20034;-78
2022/09/26 13:46:02;;;;;;;7.70;5.68;;;;;;;;;;5002180;28;20479;-79
2022/09/26 13:48:41;;;;;;;10.57;5.80;;;;;;;;;;4915389;29;20044;-78
2022/09/26 13:51:35;;;;;;;8.32;5.70;;;;;;;;;;4932704;29;20100;-81
2022/09/26 13:54:22;;;;;;;10.98;5.70;;;;;;;;;;4921290;29;20071;-77
2022/09/26 13:56:49;;;;;;;7.75;6.03;;;;;;;;;;4914932;29;22504;-77
2022/09/26 13:59:18;;;;;;;8.68;5.97;;;;;;;;;;4899010;29;20087;-74
2022/09/26 14:02:02;;;;;;;10.70;6.28;;;;;;;;;;4906736;29;20457;-75
2022/09/26 14:04:35;;;;;;;11.73;6.93;;;;;;;;;;4910848;29;20036;-74
2022/09/26 14:10:03;;;;;;;9.70;5.97;;;;;;;;;;4929513;29;20402;-78
2022/09/26 14:12:54;;;;;;;14.38;5.85;;;;;;;;;;4909236;29;20044;-80
2022/09/26 14:15:27;;;;;;;11.20;5.95;;;;;;;;;;4930898;29;20096;-80
2022/09/26 14:17:53;;;;;;;9.98;5.53;;;;;;;;;;4903958;29;20110;-80
2022/09/26 14:20:23;;;;;;;16.40;6.18;;;;;;;;;;4916310;29;20084;-77
2022/09/26 14:22:50;;;;;;;9.07;5.57;;;;;;;;;;4911079;29;20029;-78
2022/09/26 14:25:35;;;;;;;7.40;5.45;;;;;;;;;;4942424;28;20066;-84
2022/09/26 14:28:21;;;;;;;8.35;5.63;;;;;;;;;;5012523;28;20144;-80
2022/09/26 14:31:10;;;;;;;9.40;6.00;;;;;;;;;;4999849;28;20038;-78
2022/09/26 14:33:40;;;;;;;13.20;6.30;;;;;;;;;;4990542;28;20081;-78
2022/09/26 14:36:19;;;;;;;9.43;6.47;;;;;;;;;;4987701;28;20042;-80
2022/09/26 14:39:33;;;;;;;23.50;13.95;;;;;;;;;;5007795;28;20034;-80
2022/09/26 14:42:33;;;;;;;12.88;8.55;;;;;;;;;;4997239;28;20019;-80
2022/09/26 14:47:59;;;;;;;20.20;12.10;;;;;;;;;;5075018;22;20117;-78
2022/09/26 14:50:34;;;;;;;24.77;13.73;;;;;;;;;;4985389;28;20030;-77
2022/09/26 14:53:10;;;;;;;14.15;9.73;;;;;;;;;;4995275;28;20025;-77
2022/09/26 14:55:50;;;;;;;14.07;9.15;;;;;;;;;;4972201;28;20520;-75
2022/09/26 14:58:27;;;;;;;14.60;8.05;;;;;;;;;;4982558;28;20504;-77
2022/09/26 15:01:18;;;;;;;12.18;9.32;;;;;;;;;;4998093;28;20027;-83
2022/09/26 15:03:59;;;;;;;17.45;9.60;;;;;;;;;;4977794;28;20038;-76
2022/09/26 15:06:30;;;;;;;17.90;9.68;;;;;;;;;;4987399;28;20014;-77
2022/09/26 15:08:58;;;;;;;15.40;11.27;;;;;;;;;;4982000;28;20660;-77
2022/09/26 15:11:43;;;;;;;15.82;11.10;;;;;;;;;;4962335;28;20050;-76
2022/09/26 15:14:32;;;;;;;15.68;11.18;;;;;;;;;;4988726;28;20041;-81
2022/09/26 15:17:00;;;;;;;19.98;12.20;;;;;;;;;;4974880;28;20370;-74
2022/09/26 15:19:36;;;;;;;23.63;15.55;;;;;;;;;;4982016;28;20847;-75
2022/09/26 15:22:31;;;;;;;30.40;20.17;;;;;;;;;;4992237;28;20091;-80
2022/09/26 15:25:31;;;;;;;32.03;22.77;;;;;;;;;;4908275;29;20072;-75
2022/09/26 15:27:59;;;;;;;88.85;69.88;;;;;;;;;;4855632;29;20041;-82
2022/09/26 15:30:36;;;;;;;24.65;17.77;;;;;;;;;;4847874;29;20034;-78
2022/09/26 15:33:06;;;;;;;34.13;23.85;;;;;;;;;;4859238;29;20269;-78
2022/09/26 15:35:32;;;;;;;37.40;24.38;;;;;;;;;;4839264;29;20028;-76
2022/09/26 15:38:01;;;;;;;30.45;19.17;;;;;;;;;;4842535;29;21858;-76
2022/09/26 15:40:28;;;;;;;29.75;24.00;;;;;;;;;;4839589;29;20583;-74
2022/09/26 15:43:11;;;;;;;23.38;18.20;;;;;;;;;;4838671;29;20117;-76
2022/09/26 15:45:46;;;;;;;27.95;22.50;;;;;;;;;;4848064;29;20029;-78
2022/09/26 15:48:21;;;;;;;25.70;22.50;;;;;;;;;;4842546;29;20054;-76
2022/09/26 15:50:48;;;;;;;36.90;28.67;;;;;;;;;;4847398;29;20053;-76
2022/09/26 15:53:16;;;;;;;33.70;27.02;;;;;;;;;;4838158;29;20034;-77
2022/09/26 15:55:49;;;;;;;29.77;24.30;;;;;;;;;;4875292;29;20048;-75